AirNav   $300 off a Bose A20
 
 963 users online  

TE01 Dillard Ranch Airport
Centerville, Texas, USA

GOING TO CENTERVILLE?


FAA INFORMATION EFFECTIVE 20 JUNE 2019

Location

FAA Identifier: TE01
Lat/Long: 31-18-17.6490N / 095-47-47.8350W
31-18.294150N / 095-47.797250W
31.3049025 / -95.7966208
(estimated)
Elevation: 225 ft. / 69 m (estimated)
Variation: 06E (1985)
From city: 11 miles E of CENTERVILLE, TX
Time zone: UTC -5 (UTC -6 during Standard Time)
Zip code: 75833

Airport Operations

Airport use: Private use. Permission required prior to landing
Activation date: 07/1987
Control tower: no
ARTCC: HOUSTON CENTER
FSS: MONTGOMERY COUNTY FLIGHT SERVICE STATION
FOR FP FILING CALL CXO FSS 1-800-833-5602.
Attendance: UNATNDD
Wind indicator: yes
Segmented circle: no

Nearby radio navigation aids

VOR radial/distance  VOR name  Freq  Var
LOAr031/14.0LEONA VORTAC110.8008E

 
NDB name  Hdg/Dist  Freq  Var  ID
PALESTINE186/29.037504EPSN .--. ... -.
HUNTSVILLE337/35.530806EUTS ..- - ...
PYRAMID143/39.241806EPYF .--. -.-- ..-.

Airport Services

Runway Information

Runway 6/24

Dimensions: 3100 x 90 ft. / 945 x 27 m
Surface: turf
RUNWAY 6  RUNWAY 24
Traffic pattern: leftleft
Obstructions: 50 ft. trees, 100 ft. from runway50 ft. trees, 100 ft. from runway

Runway 16/34

Dimensions: 1900 x 85 ft. / 579 x 26 m
Surface: turf
Operational restrictions: LNDG ON RY 34 - UPHILL; RY 16 - DOWNHILL.
RUNWAY 16  RUNWAY 34
Traffic pattern: leftleft
Obstructions: 50 ft. trees, 150 ft. from runway50 ft. trees, 80 ft. from runway

Airport Ownership and Management from official FAA records

Ownership: Privately-owned
Owner: WENDELL H. DILLARD, SR.
1872 CR 148
CENTERVILLE, TX 75833
Phone 903-536-7000
Manager: BEV MARTIN
1872 CR 148
CENTERVILLE, TX 75833
Phone 903-536-7000

Airport Operational Statistics

Aircraft based on the field: 2
Single engine airplanes: 1
Multi engine airplanes: 1
    

Additional Remarks

FOR CD CTC HOUSTON ARTCC AT 281-230-5622.

Instrument Procedures

There are no published instrument procedures at TE01.

Some nearby airports with instrument procedures:

KDKR - Houston County Airport (20 nm E)
51R - Madisonville Municipal Airport (25 nm S)
KPSN - Palestine Municipal Airport (29 nm N)
KUTS - Huntsville Municipal Airport (35 nm S)
KLXY - Mexia-Limestone County Airport (42 nm NW)
 
Loc | Ops | Rwys | IFR | FBO | Links
Com | Nav | Svcs | Stats | Notes
Area around TE01 (Dillard Ranch Airport)
 
Road maps at: MapQuest Bing Google
 
Aerial photo
WARNING: Photo may not be current or correct
Aerial photo of TE01 (Dillard Ranch Airport)
Photo by K. Bruggers

Do you have a better or more recent aerial photo of Dillard Ranch Airport that you would like to share? If so, please send us your photo.

 
Sectional chart

 
Airport distance calculator
Flying to Dillard Ranch Airport? Find the distance to fly.

From to TE01

Sunrise and sunset
Times for 15-Jul-2019
 Local
(UTC-5)
 Zulu
(UTC)
Morning civil twilight06:0311:03
Sunrise06:3011:30
Sunset20:2801:28
Evening civil twilight20:5501:55

Current date and time
Zulu (UTC)  16-Jul-2019 03:30:54
Local (UTC-5)  15-Jul-2019 22:30:54
 
METAR
KDKR 
20nm E 
160315Z AUTO 14004KT 10SM 25/24 A2996 RMK AO2 PWINO
KPSN 
29nm N 
160315Z AUTO 14004KT 10SM CLR 27/24 A2993 RMK AO2 T02710242
KUTS 
35nm S 
160253Z AUTO VRB04KT 10SM CLR 28/24 A2992 RMK AO2 SLP125 T02830244 53005
TAF
KUTS 
35nm S 
151958Z 1520/1618 16008KT P6SM FEW020 OVC250 FM160100 18008KT P6SM FEW040 FM160600 19005KT P6SM SCT025 FM161100 18007KT P6SM SCT030
NOTAMs
Click for the latest NOTAMs
NOTAMs are issued by the DoD/FAA and will open in a separate window not controlled by AirNav.

 

 
 

Would you like to see your business listed on this page?

 If your business provides an interesting product or service to pilots, flight crews, aircraft, or users of the Dillard Ranch Airport, you should consider listing it here.  To start the listing process, click on the button below
 
Add a business
 

Other Pages about Dillard Ranch Airport

Update a link
 
Copyright © AirNav, LLC. All rights reserved. Privacy Policy  Contact